createdAt,value
2023-04-07T00:01:18.853Z,13.63
2023-04-07T00:03:46.531Z,13.87
2023-04-07T00:06:13.486Z,13.47
2023-04-07T00:08:40.743Z,13.90
2023-04-07T00:11:08.959Z,15.40
2023-04-07T00:13:35.693Z,15.30
2023-04-07T00:16:02.505Z,14.67
2023-04-07T00:18:29.283Z,14.33
2023-04-07T00:20:56.035Z,14.97
2023-04-07T00:23:22.880Z,15.50
2023-04-07T00:25:50.070Z,14.70
2023-04-07T00:28:16.738Z,15.53
2023-04-07T00:30:43.444Z,15.57
2023-04-07T00:33:11.579Z,14.20
2023-04-07T00:35:38.348Z,14.70
2023-04-07T00:38:05.262Z,14.23
2023-04-07T00:40:31.996Z,13.90
2023-04-07T00:42:58.765Z,15.50
2023-04-07T00:45:25.643Z,14.47
2023-04-07T00:47:52.737Z,15.77
2023-04-07T00:50:19.488Z,14.60
2023-04-07T00:52:46.497Z,15.90
2023-04-07T00:55:13.261Z,15.27
2023-04-07T00:57:40.159Z,16.87
2023-04-07T01:00:07.238Z,15.77
2023-04-07T01:02:34.717Z,16.27
2023-04-07T01:05:07.796Z,16.83
2023-04-07T01:07:37.325Z,18.27
2023-04-07T01:10:11.121Z,18.57
2023-04-07T01:12:47.970Z,17.60
2023-04-07T01:15:19.715Z,17.70
2023-04-07T01:17:52.603Z,19.17
2023-04-07T01:20:21.706Z,18.77
2023-04-07T01:22:53.537Z,18.83
2023-04-07T01:25:42.597Z,19.07
2023-04-07T01:28:16.091Z,20.60
2023-04-07T01:30:43.466Z,20.37
2023-04-07T01:33:11.852Z,21.97
2023-04-07T01:35:39.116Z,22.03
2023-04-07T01:38:06.728Z,20.57
2023-04-07T01:40:35.172Z,21.63
2023-04-07T01:43:02.610Z,20.47
2023-04-07T01:45:30.904Z,20.67
2023-04-07T01:47:57.809Z,20.57
2023-04-07T01:50:25.219Z,21.97
2023-04-07T01:52:52.903Z,20.93
2023-04-07T01:55:20.025Z,22.20
2023-04-07T01:57:56.327Z,21.47
2023-04-07T02:00:23.244Z,20.60
2023-04-07T02:02:59.295Z,20.13
2023-04-07T02:05:28.151Z,20.80
2023-04-07T02:08:05.579Z,20.00
2023-04-07T02:10:35.736Z,19.33
2023-04-07T02:13:05.236Z,19.63
2023-04-07T02:15:32.508Z,21.70
2023-04-07T02:18:01.094Z,21.77
2023-04-07T02:20:28.612Z,20.47
2023-04-07T02:22:56.119Z,22.23
2023-04-07T02:25:24.233Z,22.10
2023-04-07T02:27:50.944Z,21.87
2023-04-07T02:30:18.970Z,20.50
2023-04-07T02:32:46.165Z,20.90
2023-04-07T02:35:14.785Z,20.97
2023-04-07T02:37:41.565Z,22.03
2023-04-07T02:40:09.165Z,22.20
2023-04-07T02:42:36.879Z,23.20
2023-04-07T02:45:07.504Z,23.10
2023-04-07T02:47:34.857Z,21.83
2023-04-07T02:50:01.620Z,21.13
2023-04-07T02:52:28.383Z,23.30
2023-04-07T02:54:56.247Z,22.37
2023-04-07T02:57:26.609Z,21.30
2023-04-07T02:59:58.277Z,21.30
2023-04-07T03:02:33.480Z,20.67
2023-04-07T03:05:01.065Z,20.33
2023-04-07T03:07:31.448Z,20.93
2023-04-07T03:10:01.097Z,20.73
2023-04-07T03:12:27.881Z,21.47
2023-04-07T03:14:54.650Z,21.53
2023-04-07T03:17:22.495Z,20.60
2023-04-07T03:19:49.439Z,22.33
2023-04-07T03:22:16.389Z,21.17
2023-04-07T03:24:48.694Z,22.27
2023-04-07T03:27:17.653Z,23.00
2023-04-07T03:29:47.217Z,22.07
2023-04-07T03:32:15.804Z,22.43
2023-04-07T03:34:42.598Z,22.33
2023-04-07T03:37:09.277Z,21.73
2023-04-07T03:39:37.752Z,22.57
2023-04-07T03:42:14.097Z,24.07
2023-04-07T03:44:42.101Z,22.70
2023-04-07T03:47:08.861Z,23.07
2023-04-07T03:49:38.611Z,23.53
2023-04-07T03:52:06.363Z,21.33
2023-04-07T03:54:35.550Z,23.90
2023-04-07T03:57:03.092Z,23.83
2023-04-07T03:59:33.643Z,23.87
2023-04-07T04:02:04.277Z,22.17
2023-04-07T04:04:31.632Z,22.60
2023-04-07T04:06:58.991Z,24.30
2023-04-07T04:09:37.658Z,23.57
2023-04-07T04:12:04.504Z,24.33
2023-04-07T04:14:32.361Z,23.13
2023-04-07T04:17:01.347Z,25.20
2023-04-07T04:19:37.606Z,24.27
2023-04-07T04:22:12.862Z,25.50
2023-04-07T04:24:48.351Z,23.40
2023-04-07T04:27:15.211Z,24.73
2023-04-07T04:29:43.933Z,25.93
2023-04-07T04:32:13.038Z,25.83
2023-04-07T04:34:42.648Z,28.07
2023-04-07T04:37:11.072Z,24.63
2023-04-07T04:39:41.941Z,26.47
2023-04-07T04:42:11.820Z,27.03
2023-04-07T04:44:39.684Z,26.40
2023-04-07T04:47:07.924Z,27.70
2023-04-07T04:49:36.657Z,27.77
2023-04-07T04:52:04.703Z,28.43
2023-04-07T04:54:37.586Z,27.30
2023-04-07T04:57:04.296Z,28.53
2023-04-07T04:59:31.238Z,27.27
2023-04-07T05:02:01.813Z,26.93
2023-04-07T05:04:28.880Z,26.23
2023-04-07T05:07:06.889Z,25.93
2023-04-07T05:09:34.315Z,23.97
2023-04-07T05:12:02.696Z,23.90
2023-04-07T05:14:35.139Z,23.27
2023-04-07T05:17:06.037Z,23.33
2023-04-07T05:19:33.177Z,23.93
2023-04-07T05:22:07.436Z,23.13
2023-04-07T05:24:42.218Z,24.13
2023-04-07T05:27:08.944Z,22.17
2023-04-07T05:29:37.402Z,23.93
2023-04-07T05:32:06.768Z,22.13
2023-04-07T05:34:33.533Z,22.07
2023-04-07T05:37:00.462Z,21.13
2023-04-07T05:39:27.501Z,20.90
2023-04-07T05:41:57.850Z,21.23
2023-04-07T05:44:27.050Z,20.90
2023-04-07T05:46:54.648Z,20.23
2023-04-07T05:49:24.175Z,20.00
2023-04-07T05:52:00.003Z,20.40
2023-04-07T05:54:26.902Z,19.70
2023-04-07T05:56:53.663Z,17.63
2023-04-07T05:59:21.933Z,17.20
2023-04-07T06:01:50.693Z,17.07
2023-04-07T06:04:17.982Z,16.90
2023-04-07T06:06:47.325Z,16.90
2023-04-07T06:09:14.174Z,16.53
2023-04-07T06:11:40.988Z,16.00
2023-04-07T06:14:07.793Z,17.07
2023-04-07T06:16:34.731Z,16.23
2023-04-07T06:19:01.499Z,15.50
2023-04-07T06:21:29.504Z,15.53
2023-04-07T06:23:56.384Z,14.03
2023-04-07T06:26:23.776Z,15.63
2023-04-07T06:28:50.728Z,13.57
2023-04-07T06:31:18.181Z,13.93
2023-04-07T06:33:45.600Z,14.47
2023-04-07T06:36:13.338Z,13.63
2023-04-07T06:38:40.232Z,13.50
2023-04-07T06:41:08.685Z,13.57
2023-04-07T06:43:35.502Z,12.17
2023-04-07T06:46:04.194Z,12.53
2023-04-07T06:48:31.559Z,12.80
2023-04-07T06:50:58.523Z,12.27
2023-04-07T06:53:25.676Z,12.57
2023-04-07T06:55:52.455Z,13.47
2023-04-07T06:58:19.158Z,12.03
2023-04-07T07:00:46.524Z,11.87
2023-04-07T07:03:13.628Z,11.60
2023-04-07T07:05:40.714Z,11.73
2023-04-07T07:08:07.465Z,11.90
2023-04-07T07:10:34.149Z,11.83
2023-04-07T07:13:01.171Z,12.27
2023-04-07T07:15:27.895Z,11.40
2023-04-07T07:17:54.702Z,11.33
2023-04-07T07:20:23.665Z,12.37
2023-04-07T07:22:51.129Z,12.07
2023-04-07T07:25:18.072Z,11.77
2023-04-07T07:27:45.356Z,11.43
2023-04-07T07:30:12.101Z,11.47
2023-04-07T07:32:38.860Z,11.20
2023-04-07T07:35:05.965Z,10.17
2023-04-07T07:37:33.467Z,10.20
2023-04-07T07:40:00.218Z,9.63
2023-04-07T07:42:27.233Z,9.37
2023-04-07T07:44:53.925Z,8.97
2023-04-07T07:47:21.001Z,9.40
2023-04-07T07:49:47.797Z,8.97
2023-04-07T07:52:14.609Z,8.23
2023-04-07T07:54:41.532Z,8.73
2023-04-07T07:57:08.753Z,7.93
2023-04-07T07:59:35.561Z,8.03
2023-04-07T08:02:02.352Z,8.37
2023-04-07T08:04:29.147Z,8.10
2023-04-07T08:06:56.716Z,9.17
2023-04-07T08:09:23.435Z,8.37
2023-04-07T08:11:50.229Z,8.10
2023-04-07T08:14:17.440Z,8.43
2023-04-07T08:16:44.681Z,9.03
2023-04-07T08:19:12.591Z,8.60
2023-04-07T08:21:39.432Z,9.30
2023-04-07T08:24:06.768Z,9.70
2023-04-07T08:26:33.636Z,9.27
2023-04-07T08:29:00.468Z,9.13
2023-04-07T08:31:27.807Z,9.50
2023-04-07T08:33:58.326Z,8.90
2023-04-07T08:36:25.645Z,9.47
2023-04-07T08:38:52.413Z,7.20
2023-04-07T08:41:30.740Z,7.67
2023-04-07T08:43:58.208Z,8.63
2023-04-07T08:46:26.263Z,9.03
2023-04-07T08:48:53.295Z,9.87
2023-04-07T08:51:30.163Z,9.30
2023-04-07T08:54:02.989Z,9.23
2023-04-07T08:56:29.960Z,9.23
2023-04-07T08:58:56.821Z,8.70
2023-04-07T09:01:24.432Z,8.23
2023-04-07T09:03:51.684Z,8.20
2023-04-07T09:06:18.752Z,8.90
2023-04-07T09:08:45.420Z,10.20
2023-04-07T09:11:12.381Z,9.00
2023-04-07T09:13:39.080Z,9.80
2023-04-07T09:16:06.756Z,9.53
2023-04-07T09:18:33.749Z,8.63
2023-04-07T09:21:01.848Z,7.97
2023-04-07T09:23:38.662Z,8.23
2023-04-07T09:26:24.637Z,7.73
2023-04-07T09:28:55.943Z,7.20
2023-04-07T09:31:23.250Z,6.53
2023-04-07T09:33:50.423Z,7.13
2023-04-07T09:36:17.318Z,6.63
2023-04-07T09:38:44.790Z,7.93
2023-04-07T09:41:16.239Z,8.37
2023-04-07T09:43:44.977Z,6.10
2023-04-07T09:46:15.827Z,5.10
2023-04-07T09:48:43.933Z,6.20
2023-04-07T09:51:12.879Z,6.40
2023-04-07T09:53:50.182Z,6.00
2023-04-07T09:56:18.298Z,6.83
2023-04-07T09:58:47.039Z,7.33
2023-04-07T10:01:14.704Z,8.00
2023-04-07T10:03:41.652Z,8.20
2023-04-07T10:06:08.501Z,7.37
2023-04-07T10:08:36.578Z,7.93
2023-04-07T10:11:03.846Z,8.83
2023-04-07T10:13:31.376Z,8.73
2023-04-07T10:15:58.620Z,8.73
2023-04-07T10:18:34.914Z,8.97
2023-04-07T10:21:02.931Z,9.30
2023-04-07T10:23:37.174Z,10.60
2023-04-07T10:26:05.089Z,10.73
2023-04-07T10:28:32.768Z,10.27
2023-04-07T10:31:00.214Z,9.67
2023-04-07T10:33:47.299Z,9.93
2023-04-07T10:36:14.873Z,9.90
2023-04-07T10:38:43.289Z,9.47
2023-04-07T10:41:28.908Z,9.17
2023-04-07T10:43:55.627Z,8.67
2023-04-07T10:46:22.544Z,8.47
2023-04-07T10:49:08.892Z,9.37
2023-04-07T10:51:35.735Z,9.00
2023-04-07T10:54:19.085Z,9.70
2023-04-07T10:57:04.240Z,9.63
2023-04-07T10:59:31.119Z,10.10
2023-04-07T11:02:24.805Z,9.27
2023-04-07T11:04:51.657Z,9.23
2023-04-07T11:07:20.002Z,9.73
2023-04-07T11:09:47.198Z,9.50
2023-04-07T11:12:23.772Z,9.00
2023-04-07T11:14:50.501Z,9.07
2023-04-07T11:17:17.722Z,7.97
2023-04-07T11:19:51.216Z,7.87
2023-04-07T11:22:29.434Z,8.10
2023-04-07T11:24:57.381Z,8.23
2023-04-07T11:27:24.153Z,8.53
2023-04-07T11:29:51.067Z,6.73
2023-04-07T11:32:24.949Z,7.83
2023-04-07T11:34:52.739Z,7.23
2023-04-07T11:37:27.361Z,5.93
2023-04-07T11:39:54.546Z,6.10
2023-04-07T11:42:34.457Z,6.30
2023-04-07T11:45:01.512Z,5.90
2023-04-07T11:47:38.150Z,6.00
2023-04-07T11:50:05.247Z,5.50
2023-04-07T11:52:42.090Z,5.73
2023-04-07T11:55:16.947Z,6.07
2023-04-07T11:57:43.644Z,5.93
2023-04-07T12:00:11.796Z,6.00
2023-04-07T12:02:38.623Z,6.17
2023-04-07T12:05:06.190Z,5.93
2023-04-07T12:07:33.449Z,6.03
2023-04-07T12:10:17.953Z,5.93
2023-04-07T12:12:46.430Z,5.73
2023-04-07T12:15:13.994Z,5.70
2023-04-07T12:17:44.897Z,6.63
2023-04-07T12:20:11.759Z,6.47
2023-04-07T12:22:38.599Z,7.20
2023-04-07T12:25:05.606Z,6.77
2023-04-07T12:27:42.191Z,7.20
2023-04-07T12:30:09.988Z,6.37
2023-04-07T12:32:37.996Z,6.80
2023-04-07T12:35:06.290Z,7.40
2023-04-07T12:37:33.336Z,6.83
2023-04-07T12:40:00.767Z,6.97
2023-04-07T12:42:28.583Z,7.50
2023-04-07T12:44:55.675Z,7.00
2023-04-07T12:47:23.062Z,5.97
2023-04-07T12:49:50.250Z,7.67
2023-04-07T12:52:17.432Z,7.00
2023-04-07T12:54:45.619Z,6.87
2023-04-07T12:57:12.846Z,6.67
2023-04-07T12:59:40.479Z,6.40
2023-04-07T13:02:08.255Z,6.20
2023-04-07T13:04:35.752Z,5.90
2023-04-07T13:07:03.368Z,5.03
2023-04-07T13:09:30.155Z,5.97
2023-04-07T13:11:58.078Z,7.00
2023-04-07T13:14:25.023Z,7.40
2023-04-07T13:16:52.067Z,6.37
2023-04-07T13:19:18.915Z,7.27
2023-04-07T13:21:47.710Z,6.90
2023-04-07T13:24:15.404Z,7.00
2023-04-07T13:26:42.592Z,5.53
2023-04-07T13:29:09.310Z,5.57
2023-04-07T13:31:36.144Z,5.50
2023-04-07T13:34:02.890Z,5.67
2023-04-07T13:36:30.230Z,5.37
2023-04-07T13:38:57.618Z,5.83
2023-04-07T13:41:24.375Z,6.03
2023-04-07T13:43:51.444Z,5.50
2023-04-07T13:46:27.289Z,5.40
2023-04-07T13:48:55.592Z,4.87
2023-04-07T13:51:23.069Z,5.27
2023-04-07T13:53:49.946Z,5.03
2023-04-07T13:56:16.876Z,5.00
2023-04-07T13:58:44.616Z,4.93
2023-04-07T14:01:11.563Z,3.90
2023-04-07T14:03:38.906Z,4.33
2023-04-07T14:06:05.806Z,4.60
2023-04-07T14:08:32.610Z,5.10
2023-04-07T14:10:59.334Z,4.90
2023-04-07T14:13:26.028Z,5.23
2023-04-07T14:15:54.089Z,4.83
2023-04-07T14:18:20.947Z,5.33
2023-04-07T14:20:48.107Z,5.97
2023-04-07T14:23:20.657Z,6.37
2023-04-07T14:25:53.280Z,5.73
2023-04-07T14:28:20.082Z,5.53
2023-04-07T14:30:47.554Z,5.50
2023-04-07T14:33:15.696Z,4.47
2023-04-07T14:35:42.437Z,5.70
2023-04-07T14:38:09.203Z,6.00
2023-04-07T14:40:36.246Z,6.70
2023-04-07T14:43:07.326Z,5.93
2023-04-07T14:45:35.899Z,6.30
2023-04-07T14:48:02.920Z,6.70
2023-04-07T14:50:32.250Z,7.37
2023-04-07T14:52:59.023Z,6.87
2023-04-07T14:55:25.974Z,7.13
2023-04-07T14:57:52.708Z,7.40
2023-04-07T15:00:19.396Z,7.33
2023-04-07T15:02:46.229Z,7.10
2023-04-07T15:05:13.429Z,7.20
2023-04-07T15:07:40.248Z,7.37
2023-04-07T15:10:07.192Z,8.17
2023-04-07T15:12:33.978Z,7.57
2023-04-07T15:15:00.768Z,6.97
2023-04-07T15:17:40.101Z,6.40
2023-04-07T15:20:10.389Z,7.67
2023-04-07T15:22:37.115Z,8.67
2023-04-07T15:25:03.971Z,10.73
2023-04-07T15:27:30.760Z,9.27
2023-04-07T15:29:57.996Z,9.67
2023-04-07T15:32:24.981Z,9.80
2023-04-07T15:34:51.665Z,10.67
2023-04-07T15:37:19.060Z,10.60
2023-04-07T15:39:45.749Z,10.37
2023-04-07T15:42:13.120Z,10.07
2023-04-07T15:44:40.153Z,10.97
2023-04-07T15:47:07.224Z,10.93
2023-04-07T15:49:34.291Z,11.00
2023-04-07T15:52:04.130Z,10.90
2023-04-07T15:54:31.022Z,11.87
2023-04-07T15:56:58.206Z,10.80
2023-04-07T15:59:25.040Z,10.37
2023-04-07T16:01:51.980Z,11.27
2023-04-07T16:04:19.495Z,10.93
2023-04-07T16:06:46.302Z,10.67
2023-04-07T16:09:13.024Z,11.90
2023-04-07T16:11:39.834Z,11.80
2023-04-07T16:14:08.438Z,11.73
2023-04-07T16:16:37.185Z,12.03
2023-04-07T16:19:04.007Z,12.50
2023-04-07T16:21:31.518Z,11.77
2023-04-07T16:23:58.284Z,11.47
2023-04-07T16:26:25.039Z,11.77
2023-04-07T16:28:51.770Z,12.27
2023-04-07T16:31:18.555Z,11.63
2023-04-07T16:33:45.375Z,11.03
2023-04-07T16:36:12.190Z,12.30
2023-04-07T16:38:38.947Z,11.93
2023-04-07T16:41:07.287Z,12.10
2023-04-07T16:43:34.092Z,11.70
2023-04-07T16:46:01.108Z,12.40
2023-04-07T16:48:28.654Z,11.93
2023-04-07T16:50:55.677Z,11.83
2023-04-07T16:53:22.921Z,12.77
2023-04-07T16:55:49.695Z,11.57
2023-04-07T16:58:19.885Z,12.43
2023-04-07T17:00:46.765Z,12.43
2023-04-07T17:03:14.882Z,11.67
2023-04-07T17:05:41.864Z,11.43
2023-04-07T17:08:08.611Z,10.37
2023-04-07T17:10:35.614Z,11.77
2023-04-07T17:13:02.431Z,12.13
2023-04-07T17:15:29.330Z,12.07
2023-04-07T17:17:56.268Z,11.83
2023-04-07T17:20:23.730Z,10.50
2023-04-07T17:22:50.923Z,10.60
2023-04-07T17:25:19.010Z,11.37
2023-04-07T17:27:48.266Z,9.47
2023-04-07T17:30:15.140Z,9.90
2023-04-07T17:32:42.588Z,9.77
2023-04-07T17:35:09.666Z,9.30
2023-04-07T17:37:36.465Z,9.53
2023-04-07T17:40:03.315Z,9.70
2023-04-07T17:42:30.489Z,9.40
2023-04-07T17:44:58.093Z,9.03
2023-04-07T17:47:27.657Z,8.83
2023-04-07T17:49:54.308Z,8.83
2023-04-07T17:52:21.681Z,9.13
2023-04-07T17:54:48.429Z,8.67
2023-04-07T17:57:16.019Z,9.10
2023-04-07T17:59:42.813Z,9.33
2023-04-07T18:02:10.455Z,9.57
2023-04-07T18:04:38.000Z,10.10
2023-04-07T18:07:05.124Z,10.37
2023-04-07T18:09:32.613Z,11.03
2023-04-07T18:11:59.556Z,10.87
2023-04-07T18:14:26.646Z,10.53
2023-04-07T18:16:54.779Z,10.90
2023-04-07T18:19:23.114Z,10.63
2023-04-07T18:21:52.917Z,11.03
2023-04-07T18:24:20.952Z,11.17
2023-04-07T18:26:48.470Z,11.37
2023-04-07T18:29:15.535Z,12.13
2023-04-07T18:31:45.288Z,11.27
2023-04-07T18:34:12.864Z,11.47
2023-04-07T18:36:43.101Z,10.83
2023-04-07T18:39:10.593Z,10.50
2023-04-07T18:41:37.337Z,12.40
2023-04-07T18:44:04.213Z,11.17
2023-04-07T18:46:32.648Z,11.07
2023-04-07T18:48:59.521Z,10.70
2023-04-07T18:51:26.541Z,10.70
2023-04-07T18:53:53.451Z,10.17
2023-04-07T18:56:21.734Z,11.43
2023-04-07T18:58:49.072Z,10.67
2023-04-07T19:01:15.923Z,10.53
2023-04-07T19:03:42.928Z,10.47
2023-04-07T19:06:10.004Z,10.83
2023-04-07T19:08:37.002Z,10.43
2023-04-07T19:11:03.992Z,10.33
2023-04-07T19:13:30.913Z,9.90
2023-04-07T19:15:58.406Z,10.20
2023-04-07T19:18:25.379Z,10.27
2023-04-07T19:20:52.171Z,11.07
2023-04-07T19:23:18.874Z,10.63
2023-04-07T19:25:46.013Z,9.73
2023-04-07T19:28:13.141Z,9.83
2023-04-07T19:30:39.995Z,11.50
2023-04-07T19:33:06.981Z,11.10
2023-04-07T19:35:34.184Z,11.43
2023-04-07T19:38:02.321Z,11.67
2023-04-07T19:40:31.456Z,11.63
2023-04-07T19:42:58.568Z,11.27
2023-04-07T19:45:26.223Z,11.50
2023-04-07T19:47:55.968Z,11.27
2023-04-07T19:50:22.835Z,13.07
2023-04-07T19:52:50.626Z,12.07
2023-04-07T19:55:17.745Z,11.87
2023-04-07T19:57:44.587Z,11.23
2023-04-07T20:00:11.843Z,10.87
2023-04-07T20:02:47.759Z,10.03
2023-04-07T20:05:14.590Z,10.70
2023-04-07T20:07:41.863Z,9.80
2023-04-07T20:10:09.026Z,10.70
2023-04-07T20:12:35.756Z,10.90
2023-04-07T20:15:04.575Z,11.00
2023-04-07T20:17:32.759Z,10.20
2023-04-07T20:19:59.814Z,10.57
2023-04-07T20:22:26.643Z,9.90
2023-04-07T20:24:53.418Z,10.40
2023-04-07T20:27:20.171Z,10.63
2023-04-07T20:29:47.254Z,10.00
2023-04-07T20:32:14.260Z,10.33
2023-04-07T20:34:41.455Z,10.63
2023-04-07T20:37:08.214Z,10.63
2023-04-07T20:39:35.631Z,10.47
2023-04-07T20:42:03.285Z,10.40
2023-04-07T20:44:31.552Z,10.27
2023-04-07T20:46:58.774Z,10.53
2023-04-07T20:49:25.532Z,10.83
2023-04-07T20:51:52.300Z,10.53
2023-04-07T20:54:18.972Z,10.10
2023-04-07T20:56:45.817Z,11.03
2023-04-07T20:59:12.569Z,11.20
2023-04-07T21:01:39.492Z,11.00
2023-04-07T21:04:06.661Z,10.23
2023-04-07T21:06:33.620Z,11.20
2023-04-07T21:09:00.359Z,11.13
2023-04-07T21:11:27.599Z,11.87
2023-04-07T21:13:54.420Z,11.83
2023-04-07T21:16:21.518Z,11.53
2023-04-07T21:18:49.140Z,12.17
2023-04-07T21:21:16.105Z,12.57
2023-04-07T21:23:42.862Z,13.17
2023-04-07T21:26:09.609Z,12.63
2023-04-07T21:28:36.440Z,13.20
2023-04-07T21:31:03.979Z,12.67
2023-04-07T21:33:30.862Z,13.00
2023-04-07T21:35:57.761Z,13.67
2023-04-07T21:38:24.460Z,12.47
2023-04-07T21:40:51.460Z,13.93
2023-04-07T21:43:18.156Z,13.50
2023-04-07T21:45:46.274Z,13.30
2023-04-07T21:48:13.736Z,14.03
2023-04-07T21:50:40.506Z,14.63
2023-04-07T21:53:09.156Z,13.63
2023-04-07T21:55:36.414Z,15.80
2023-04-07T21:58:04.089Z,14.67
2023-04-07T22:00:31.491Z,15.10
2023-04-07T22:02:58.980Z,14.97
2023-04-07T22:05:26.076Z,15.33
2023-04-07T22:07:52.870Z,14.27
2023-04-07T22:10:19.695Z,15.10
2023-04-07T22:12:46.380Z,14.97
2023-04-07T22:15:13.804Z,15.07
2023-04-07T22:17:40.861Z,14.67
2023-04-07T22:20:08.119Z,15.17
2023-04-07T22:22:34.803Z,15.87
2023-04-07T22:25:01.539Z,17.27
2023-04-07T22:27:28.230Z,15.87
2023-04-07T22:29:55.034Z,15.77
2023-04-07T22:32:21.819Z,16.30
2023-04-07T22:34:49.196Z,15.47
2023-04-07T22:37:15.872Z,16.30
2023-04-07T22:39:44.627Z,16.23
2023-04-07T22:42:11.395Z,16.70
2023-04-07T22:44:38.741Z,16.23
2023-04-07T22:47:05.568Z,16.37
2023-04-07T22:49:32.497Z,17.87
2023-04-07T22:51:59.278Z,16.83
2023-04-07T22:54:26.188Z,17.23
2023-04-07T22:56:52.855Z,17.73
2023-04-07T22:59:19.709Z,18.00
2023-04-07T23:01:46.722Z,17.00
2023-04-07T23:04:13.485Z,17.97
2023-04-07T23:06:43.527Z,17.13
2023-04-07T23:09:10.603Z,17.27
2023-04-07T23:11:37.254Z,17.87
2023-04-07T23:14:07.083Z,19.10
2023-04-07T23:16:34.477Z,19.03
2023-04-07T23:19:01.449Z,18.13
2023-04-07T23:21:30.803Z,18.87
2023-04-07T23:23:58.160Z,18.53
2023-04-07T23:26:24.939Z,18.33
2023-04-07T23:28:52.076Z,18.07
2023-04-07T23:31:18.947Z,18.87
2023-04-07T23:33:46.846Z,19.00
2023-04-07T23:36:13.550Z,17.67
2023-04-07T23:38:40.970Z,18.07
2023-04-07T23:41:08.116Z,18.03
2023-04-07T23:43:35.020Z,17.97
2023-04-07T23:46:02.458Z,17.93
2023-04-07T23:48:30.483Z,17.23
2023-04-07T23:50:57.586Z,16.97
2023-04-07T23:53:24.616Z,18.70
2023-04-07T23:55:51.857Z,16.97
2023-04-07T23:58:18.507Z,18.20
